Time;durP1;ratioP1;P1;durP2;ratioP2;P2;SDS_P1;SDS_P2;PMS_P1;PMS_P2;Temp;Humidity;BMP_temperature;BMP_pressure;BME280_temperature;BME280_humidity;BME280_pressure;Samples;Min_cycle;Max_cycle;Signal;HPM_P1;HPM_P2
2023/01/05 00:01:08;;;;;;;23.85;3.28;;;9.60;99.90;;;;;;5088961;28;20433;-78
2023/01/05 00:03:34;;;;;;;18.40;3.17;;;9.60;99.90;;;;;;5089064;28;20425;-79
2023/01/05 00:06:01;;;;;;;22.55;2.92;;;9.60;99.90;;;;;;5090352;28;20803;-79
2023/01/05 00:08:27;;;;;;;21.33;3.33;;;9.60;99.90;;;;;;5098626;28;20404;-79
2023/01/05 00:24:39;;;;;;;21.70;3.53;;;9.50;99.90;;;;;;5088310;28;20410;-78
2023/01/05 00:27:05;;;;;;;20.83;2.97;;;9.50;99.90;;;;;;5088766;28;20413;-78
2023/01/05 00:29:30;;;;;;;22.83;3.25;;;9.50;99.90;;;;;;5091041;28;20404;-78
2023/01/05 00:31:56;;;;;;;23.80;3.53;;;9.50;99.90;;;;;;5091080;28;20911;-79
2023/01/05 00:34:22;;;;;;;18.42;3.17;;;9.50;99.90;;;;;;5091679;28;20462;-79
2023/01/05 00:36:47;;;;;;;20.27;3.23;;;9.50;99.90;;;;;;5091608;28;20410;-79
2023/01/05 00:39:13;;;;;;;18.63;2.85;;;9.60;99.90;;;;;;5095054;28;20913;-78
2023/01/05 00:41:38;;;;;;;18.67;3.03;;;9.60;99.90;;;;;;5091719;28;20398;-79
2023/01/05 00:44:04;;;;;;;22.20;3.05;;;9.50;99.90;;;;;;5091011;28;20913;-79
2023/01/05 00:46:30;;;;;;;20.67;3.37;;;9.60;99.90;;;;;;5091368;28;20472;-78
2023/01/05 00:48:55;;;;;;;22.75;3.20;;;9.60;99.90;;;;;;5094837;28;20453;-79
2023/01/05 00:51:21;;;;;;;19.07;3.20;;;9.60;99.90;;;;;;5092325;28;20713;-79
2023/01/05 00:53:47;;;;;;;17.27;3.75;;;9.60;99.90;;;;;;5095912;28;20399;-78
2023/01/05 00:56:13;;;;;;;21.33;3.72;;;9.60;99.90;;;;;;5082879;28;20523;-79
2023/01/05 00:58:38;;;;;;;18.13;3.13;;;9.60;99.90;;;;;;5090257;28;20927;-78
2023/01/05 01:01:13;;;;;;;17.00;2.80;;;9.60;99.90;;;;;;5081052;28;20489;-79
2023/01/05 01:03:39;;;;;;;22.83;3.45;;;9.60;99.90;;;;;;5094732;28;20890;-79
2023/01/05 01:06:05;;;;;;;19.90;3.23;;;9.50;99.90;;;;;;5090498;28;20405;-78
2023/01/05 01:08:31;;;;;;;21.63;3.70;;;9.50;99.90;;;;;;5093275;28;20404;-79
2023/01/05 01:10:56;;;;;;;23.30;2.93;;;9.50;99.90;;;;;;5091427;28;20741;-79
2023/01/05 01:13:23;;;;;;;22.42;3.47;;;9.50;99.90;;;;;;5094416;28;20407;-78
2023/01/05 01:15:49;;;;;;;17.92;3.33;;;9.40;99.90;;;;;;5075573;28;20784;-79
2023/01/05 01:18:14;;;;;;;23.40;3.30;;;9.40;99.90;;;;;;5096312;28;20413;-79
2023/01/05 01:20:40;;;;;;;23.53;3.80;;;9.40;99.90;;;;;;5085158;28;20436;-78
2023/01/05 01:23:05;;;;;;;21.67;3.53;;;9.40;99.90;;;;;;5090257;28;20508;-79
2023/01/05 01:25:31;;;;;;;27.43;4.33;;;9.40;99.90;;;;;;5088457;28;20443;-79
2023/01/05 01:27:57;;;;;;;23.27;3.58;;;9.40;99.90;;;;;;5092659;28;20489;-79
2023/01/05 01:30:23;;;;;;;22.70;3.30;;;9.40;99.90;;;;;;5090900;28;20835;-79
2023/01/05 01:32:48;;;;;;;22.73;3.80;;;9.40;99.90;;;;;;5089733;28;20409;-78
2023/01/05 01:35:14;;;;;;;24.58;3.50;;;9.50;99.90;;;;;;5087522;28;20402;-78
2023/01/05 01:37:39;;;;;;;26.47;3.43;;;9.50;99.90;;;;;;5093546;28;20449;-79
2023/01/05 01:40:06;;;;;;;26.52;3.58;;;9.50;99.90;;;;;;5091006;28;20421;-78
2023/01/05 01:42:32;;;;;;;21.40;3.22;;;9.60;99.90;;;;;;5093873;28;20934;-78
2023/01/05 01:45:00;;;;;;;22.93;3.80;;;9.50;99.90;;;;;;5090813;28;20468;-79
2023/01/05 01:47:35;;;;;;;24.05;3.60;;;9.60;99.90;;;;;;5093569;28;20396;-79
2023/01/05 01:50:12;;;;;;;26.77;4.10;;;9.50;99.90;;;;;;5090634;28;20415;-78
2023/01/05 01:52:39;;;;;;;28.50;4.27;;;9.50;99.90;;;;;;5087865;28;20402;-79
2023/01/05 01:55:05;;;;;;;22.77;3.63;;;9.60;99.90;;;;;;5087115;28;20439;-79
2023/01/05 01:57:32;;;;;;;26.73;3.22;;;9.60;99.90;;;;;;5095064;28;20405;-79
2023/01/05 02:00:01;;;;;;;19.85;3.47;;;9.60;99.90;;;;;;5092243;28;20989;-79
2023/01/05 02:02:27;;;;;;;18.27;3.40;;;9.60;99.90;;;;;;5090619;28;20445;-78
2023/01/05 02:04:55;;;;;;;18.05;3.35;;;9.60;99.90;;;;;;5089044;28;20402;-79
2023/01/05 02:07:23;;;;;;;19.75;3.05;;;9.60;99.90;;;;;;5093848;28;20426;-79
2023/01/05 02:09:49;;;;;;;19.27;3.15;;;9.70;99.90;;;;;;5094300;28;20413;-79
2023/01/05 02:12:48;;;;;;;22.35;3.28;;;9.70;99.90;;;;;;5096811;28;20402;-79
2023/01/05 02:15:29;;;;;;;18.75;2.30;;;9.70;99.90;;;;;;5095320;28;20412;-79
2023/01/05 02:18:07;;;;;;;15.80;2.50;;;9.70;99.90;;;;;;5087144;28;20425;-78
2023/01/05 02:20:59;;;;;;;17.60;2.67;;;9.70;99.90;;;;;;5087690;28;20459;-79
2023/01/05 02:23:44;;;;;;;20.35;3.40;;;9.60;99.90;;;;;;5080482;28;20414;-78
2023/01/05 02:26:50;;;;;;;15.43;2.70;;;9.70;99.90;;;;;;5086745;28;20416;-78
2023/01/05 02:29:34;;;;;;;22.52;3.40;;;9.70;99.90;;;;;;5058199;28;20418;-79
2023/01/05 02:32:11;;;;;;;17.70;3.07;;;9.60;99.90;;;;;;5069265;28;20410;-76
2023/01/05 02:34:51;;;;;;;20.30;3.03;;;9.70;99.90;;;;;;5085970;28;20471;-77
2023/01/05 02:37:37;;;;;;;16.58;2.65;;;9.70;99.90;;;;;;5085326;28;20489;-78
2023/01/05 02:40:16;;;;;;;19.35;3.28;;;9.70;99.90;;;;;;5086786;28;20499;-78
2023/01/05 02:42:44;;;;;;;16.75;2.97;;;9.70;99.90;;;;;;5087015;28;20418;-78
2023/01/05 02:45:10;;;;;;;19.30;3.25;;;9.70;99.90;;;;;;5069973;28;20410;-78
2023/01/05 02:47:41;;;;;;;18.52;2.65;;;9.70;99.90;;;;;;5069979;28;20402;-79
2023/01/05 02:50:22;;;;;;;18.42;2.65;;;9.70;99.90;;;;;;5087220;28;20406;-78
2023/01/05 02:52:56;;;;;;;19.33;3.40;;;9.70;99.90;;;;;;5088100;28;20797;-78
2023/01/05 02:55:36;;;;;;;16.40;2.53;;;9.80;99.90;;;;;;5066508;28;20418;-78
2023/01/05 02:58:09;;;;;;;18.63;3.20;;;9.70;99.90;;;;;;5091122;28;20404;-79
2023/01/05 03:00:40;;;;;;;19.20;3.25;;;9.70;99.90;;;;;;5085921;28;20833;-78
2023/01/05 03:03:12;;;;;;;18.30;3.15;;;9.70;99.90;;;;;;5086417;28;20402;-79
2023/01/05 03:05:51;;;;;;;17.80;3.33;;;9.60;99.90;;;;;;5086169;28;20427;-78
2023/01/05 03:08:21;;;;;;;19.48;3.08;;;9.60;99.90;;;;;;5071231;28;20425;-79
2023/01/05 03:14:06;;;;;;;18.98;2.67;;;9.60;99.90;;;;;;5084211;28;20421;-79
2023/01/05 03:16:37;;;;;;;22.73;3.78;;;9.60;99.90;;;;;;5089918;28;20429;-79
2023/01/05 03:35:54;;;;;;;17.27;2.70;;;9.60;99.90;;;;;;5083205;28;20421;-79
2023/01/05 03:38:39;;;;;;;23.10;3.72;;;9.60;99.90;;;;;;5093313;28;20412;-79
2023/01/05 03:41:09;;;;;;;19.98;3.67;;;9.60;99.90;;;;;;5092943;28;20465;-79
2023/01/05 03:43:38;;;;;;;20.20;3.58;;;9.70;99.90;;;;;;5090274;28;20518;-78
2023/01/05 03:46:16;;;;;;;20.48;3.13;;;9.70;99.90;;;;;;5091712;28;20410;-79
2023/01/05 03:48:42;;;;;;;17.63;3.10;;;9.70;99.90;;;;;;5082930;28;20936;-78
2023/01/05 03:51:08;;;;;;;18.70;3.37;;;9.70;99.90;;;;;;5091491;28;20392;-78
2023/01/05 03:53:33;;;;;;;23.90;3.38;;;9.70;99.90;;;;;;5089327;28;20498;-78
2023/01/05 03:55:59;;;;;;;18.80;3.27;;;9.70;99.90;;;;;;5093819;28;20914;-78
2023/01/05 03:58:24;;;;;;;26.48;4.13;;;9.70;99.90;;;;;;5091694;28;20398;-79
2023/01/05 04:00:50;;;;;;;21.30;3.37;;;9.60;99.90;;;;;;5091560;28;20508;-79
2023/01/05 04:03:16;;;;;;;20.60;3.40;;;9.60;99.90;;;;;;5092451;28;20421;-78
2023/01/05 04:05:41;;;;;;;24.27;3.73;;;9.70;99.90;;;;;;5091918;28;20454;-78
2023/01/05 04:08:07;;;;;;;22.40;3.40;;;9.70;99.90;;;;;;5074513;28;20755;-78
2023/01/05 04:10:32;;;;;;;20.83;3.20;;;9.70;99.90;;;;;;5094628;28;20430;-78
2023/01/05 04:12:58;;;;;;;17.52;3.38;;;9.70;99.90;;;;;;5078343;28;20473;-78
2023/01/05 04:15:24;;;;;;;22.27;4.03;;;9.70;99.90;;;;;;5094141;28;20432;-78
2023/01/05 04:17:49;;;;;;;19.25;2.90;;;9.70;99.90;;;;;;5091115;28;20447;-78
2023/01/05 04:20:15;;;;;;;15.50;2.72;;;9.70;99.90;;;;;;5090921;28;20795;-78
2023/01/05 04:22:41;;;;;;;19.87;3.10;;;9.70;99.90;;;;;;5094257;28;20408;-79
2023/01/05 04:25:07;;;;;;;24.15;3.75;;;9.70;99.90;;;;;;5093971;28;21129;-78
2023/01/05 04:27:32;;;;;;;17.95;3.20;;;9.70;99.90;;;;;;5091250;28;20402;-79
2023/01/05 04:29:58;;;;;;;22.23;3.70;;;9.70;99.90;;;;;;5090703;28;20402;-80
2023/01/05 04:32:24;;;;;;;23.95;3.40;;;9.80;99.90;;;;;;5093771;28;20426;-79
2023/01/05 04:34:49;;;;;;;29.97;4.00;;;9.70;99.90;;;;;;5095174;28;20409;-79
2023/01/05 04:37:15;;;;;;;23.85;3.65;;;9.70;99.90;;;;;;5095858;28;20452;-79
2023/01/05 04:39:41;;;;;;;25.08;3.85;;;9.70;99.90;;;;;;5095357;28;20434;-79
2023/01/05 04:42:07;;;;;;;23.70;3.78;;;9.60;99.90;;;;;;5090399;28;20405;-79
2023/01/05 04:44:32;;;;;;;18.53;3.50;;;9.60;99.90;;;;;;5078790;28;20421;-78
2023/01/05 04:46:58;;;;;;;23.88;3.78;;;9.60;99.90;;;;;;5095663;28;20504;-78
2023/01/05 04:49:23;;;;;;;23.17;4.13;;;9.60;99.90;;;;;;5094754;28;20415;-78
2023/01/05 04:51:49;;;;;;;21.52;3.22;;;9.60;99.90;;;;;;5093469;28;20417;-78
2023/01/05 04:54:16;;;;;;;22.30;3.23;;;9.60;99.90;;;;;;5087614;28;21277;-78
2023/01/05 04:56:41;;;;;;;19.63;3.47;;;9.50;99.90;;;;;;5088045;28;20410;-79
2023/01/05 04:59:07;;;;;;;17.60;3.47;;;9.50;99.90;;;;;;5091127;28;20493;-79
2023/01/05 05:01:33;;;;;;;23.02;3.85;;;9.50;99.90;;;;;;5095824;28;20418;-79
2023/01/05 05:03:58;;;;;;;19.67;3.00;;;9.60;99.90;;;;;;5072340;28;20402;-79
2023/01/05 05:06:24;;;;;;;19.50;2.90;;;9.60;99.90;;;;;;5090090;28;20417;-79
2023/01/05 05:08:50;;;;;;;20.63;3.20;;;9.60;99.90;;;;;;5087998;28;20402;-79
2023/01/05 05:11:15;;;;;;;20.55;3.42;;;9.60;99.90;;;;;;5087526;28;20398;-78
2023/01/05 05:13:41;;;;;;;18.08;2.90;;;9.60;99.90;;;;;;5089474;28;20441;-79
2023/01/05 05:16:07;;;;;;;20.30;3.20;;;9.60;99.90;;;;;;5091674;28;20911;-79
2023/01/05 05:18:32;;;;;;;29.55;4.28;;;9.60;99.90;;;;;;5088989;28;20405;-79
2023/01/05 05:20:58;;;;;;;23.50;3.73;;;9.60;99.90;;;;;;5091321;28;20834;-79
2023/01/05 05:23:24;;;;;;;21.23;3.85;;;9.60;99.90;;;;;;5091964;28;20489;-79
2023/01/05 05:25:51;;;;;;;27.90;3.55;;;9.50;99.90;;;;;;5092485;28;21005;-78
2023/01/05 05:28:17;;;;;;;22.73;3.88;;;9.50;99.90;;;;;;5092397;28;20401;-79
2023/01/05 05:30:43;;;;;;;25.05;4.43;;;9.50;99.90;;;;;;5091464;28;20403;-79
2023/01/05 05:33:08;;;;;;;28.27;4.10;;;9.50;99.90;;;;;;5091662;28;20398;-79
2023/01/05 05:35:34;;;;;;;23.15;3.88;;;9.50;99.90;;;;;;5090363;28;20414;-79
2023/01/05 05:38:00;;;;;;;21.63;3.47;;;9.50;99.90;;;;;;5090187;28;20406;-79
2023/01/05 05:40:27;;;;;;;18.25;3.30;;;9.50;99.90;;;;;;5072803;28;20430;-79
2023/01/05 05:42:52;;;;;;;18.50;3.22;;;9.50;99.90;;;;;;5091544;28;20407;-79
2023/01/05 05:45:18;;;;;;;23.60;3.83;;;9.50;99.90;;;;;;5090187;28;20401;-79
2023/01/05 05:47:44;;;;;;;19.20;2.80;;;9.60;99.90;;;;;;5091052;28;20450;-79
2023/01/05 05:50:09;;;;;;;26.55;3.83;;;9.60;99.90;;;;;;5090702;28;20409;-78
2023/01/05 05:52:35;;;;;;;23.10;3.90;;;9.60;99.90;;;;;;5090473;28;20405;-78
2023/01/05 05:55:01;;;;;;;19.98;3.30;;;9.60;99.90;;;;;;5094603;28;20474;-79
2023/01/05 05:57:26;;;;;;;17.50;3.03;;;9.60;99.90;;;;;;5093965;28;20405;-79
2023/01/05 05:59:52;;;;;;;19.52;3.75;;;9.50;99.90;;;;;;5094860;28;20627;-79
2023/01/05 06:02:18;;;;;;;20.80;3.80;;;9.60;99.90;;;;;;5093203;28;20406;-79
2023/01/05 06:04:44;;;;;;;25.10;3.70;;;9.60;99.90;;;;;;5089971;28;21278;-79
2023/01/05 06:07:10;;;;;;;23.10;3.70;;;9.60;99.90;;;;;;5086911;28;20410;-78
2023/01/05 06:09:35;;;;;;;25.93;4.00;;;9.60;99.90;;;;;;5086936;28;20406;-78
2023/01/05 06:12:01;;;;;;;24.88;4.05;;;9.60;99.90;;;;;;5088187;28;20887;-78
2023/01/05 06:14:27;;;;;;;19.70;3.43;;;9.60;99.90;;;;;;5090870;28;20457;-78
2023/01/05 06:16:52;;;;;;;21.80;4.00;;;9.50;99.90;;;;;;5093030;28;20398;-78
2023/01/05 06:19:18;;;;;;;27.93;3.70;;;9.60;99.90;;;;;;5094737;28;20426;-79
2023/01/05 06:21:43;;;;;;;22.65;3.40;;;9.50;99.90;;;;;;5091872;28;20404;-79
2023/01/05 06:24:09;;;;;;;23.40;4.03;;;9.60;99.90;;;;;;5095106;28;20492;-79
2023/01/05 06:26:35;;;;;;;20.23;3.47;;;9.50;99.90;;;;;;5092422;28;20433;-79
2023/01/05 06:29:00;;;;;;;24.27;4.97;;;9.50;99.90;;;;;;5094995;28;20481;-79
2023/01/05 06:31:26;;;;;;;26.92;4.10;;;9.50;99.90;;;;;;5091047;28;20402;-79
2023/01/05 06:33:52;;;;;;;22.83;3.80;;;9.50;99.90;;;;;;5094202;28;20487;-79
2023/01/05 06:36:17;;;;;;;25.40;3.72;;;9.60;99.90;;;;;;5086527;28;20413;-79
2023/01/05 06:38:43;;;;;;;21.55;3.40;;;9.60;99.90;;;;;;5086325;28;20414;-79
2023/01/05 06:41:09;;;;;;;23.52;3.70;;;9.50;99.90;;;;;;5086508;28;20430;-79
2023/01/05 06:43:35;;;;;;;27.33;4.60;;;9.50;99.90;;;;;;5069205;28;20560;-79
2023/01/05 06:46:00;;;;;;;19.58;3.35;;;9.50;99.90;;;;;;5091059;28;20472;-79
2023/01/05 06:48:26;;;;;;;25.33;4.00;;;9.50;99.90;;;;;;5099805;28;20934;-77
2023/01/05 06:50:52;;;;;;;20.88;3.53;;;9.50;99.90;;;;;;5096653;28;20425;-77
2023/01/05 06:53:17;;;;;;;19.43;3.50;;;9.50;99.90;;;;;;5091847;28;20464;-76
2023/01/05 06:55:44;;;;;;;23.20;3.80;;;9.50;99.90;;;;;;5088190;28;20498;-77
2023/01/05 06:58:09;;;;;;;23.77;3.75;;;9.50;99.90;;;;;;5089663;28;20449;-77
2023/01/05 07:00:35;;;;;;;23.77;3.45;;;9.50;99.90;;;;;;5090281;28;20997;-79
2023/01/05 07:03:01;;;;;;;27.85;3.60;;;9.50;99.90;;;;;;5089870;28;20463;-79
2023/01/05 07:05:27;;;;;;;24.10;4.20;;;9.40;99.90;;;;;;5089643;28;20405;-79
2023/01/05 07:07:52;;;;;;;30.23;4.25;;;9.40;99.90;;;;;;5091383;28;20845;-79
2023/01/05 07:10:18;;;;;;;27.83;4.90;;;9.40;99.90;;;;;;5091373;28;20397;-79
2023/01/05 07:12:44;;;;;;;25.70;4.47;;;9.40;99.90;;;;;;5075845;28;20455;-80
2023/01/05 07:15:09;;;;;;;24.75;3.75;;;9.40;99.90;;;;;;5092898;28;20404;-79
2023/01/05 07:17:35;;;;;;;32.83;4.80;;;9.30;99.90;;;;;;5095181;28;20406;-79
2023/01/05 07:20:02;;;;;;;29.73;4.43;;;9.30;99.90;;;;;;5092809;28;20524;-79
2023/01/05 07:22:29;;;;;;;24.85;3.65;;;9.30;99.90;;;;;;5094612;28;20406;-79
2023/01/05 07:24:56;;;;;;;26.13;3.92;;;9.20;99.90;;;;;;5093158;28;20462;-79
2023/01/05 07:27:22;;;;;;;22.17;3.78;;;9.20;99.90;;;;;;5094583;28;20409;-79
2023/01/05 07:29:48;;;;;;;17.35;2.63;;;9.20;99.90;;;;;;5093653;28;20525;-79
2023/01/05 07:32:13;;;;;;;18.70;2.90;;;9.10;99.90;;;;;;5093981;28;20414;-80
2023/01/05 07:34:39;;;;;;;21.13;3.67;;;9.10;99.90;;;;;;5092836;28;20413;-79
2023/01/05 07:37:05;;;;;;;23.03;3.73;;;9.10;99.90;;;;;;5093794;28;20440;-79
2023/01/05 07:39:30;;;;;;;24.35;3.90;;;9.10;99.90;;;;;;5092848;28;20426;-79
2023/01/05 07:41:56;;;;;;;22.80;3.63;;;9.00;99.90;;;;;;5094086;28;20405;-79
2023/01/05 07:44:22;;;;;;;23.63;4.45;;;9.00;99.90;;;;;;5093463;28;20398;-79
2023/01/05 07:46:47;;;;;;;20.08;3.47;;;9.00;99.90;;;;;;5091452;28;20402;-80
2023/01/05 07:49:14;;;;;;;22.87;3.50;;;9.00;99.90;;;;;;5093406;28;20741;-79
2023/01/05 07:51:40;;;;;;;21.40;3.50;;;9.00;99.90;;;;;;5094455;28;20434;-79
2023/01/05 07:54:05;;;;;;;18.27;2.78;;;9.00;99.90;;;;;;5094230;28;20449;-79
2023/01/05 07:56:31;;;;;;;17.13;2.58;;;9.00;99.90;;;;;;5094984;28;20409;-79
2023/01/05 07:58:57;;;;;;;14.80;2.03;;;8.90;99.90;;;;;;5094242;28;20894;-79
2023/01/05 08:01:23;;;;;;;13.68;1.80;;;8.90;99.90;;;;;;5080610;28;20903;-80
2023/01/05 08:03:49;;;;;;;13.10;1.60;;;8.90;99.90;;;;;;5094732;28;20407;-79
2023/01/05 08:06:17;;;;;;;12.90;1.20;;;8.90;99.90;;;;;;5093392;28;20405;-79
2023/01/05 08:08:43;;;;;;;8.00;1.02;;;8.80;99.90;;;;;;5091821;28;20402;-79
2023/01/05 08:11:14;;;;;;;5.88;0.60;;;8.80;99.90;;;;;;5092984;28;20479;-79
2023/01/05 08:13:58;;;;;;;3.72;0.50;;;8.80;99.90;;;;;;5091809;28;20489;-79
2023/01/05 08:16:24;;;;;;;5.40;0.60;;;8.80;99.90;;;;;;5082096;28;20419;-79
2023/01/05 08:18:50;;;;;;;3.22;0.38;;;8.80;99.90;;;;;;5093969;28;20896;-79
2023/01/05 08:21:15;;;;;;;4.00;0.30;;;8.70;99.90;;;;;;5088468;28;20516;-79
2023/01/05 08:23:41;;;;;;;2.70;0.37;;;8.70;99.90;;;;;;5092033;28;20402;-79
2023/01/05 08:26:13;;;;;;;2.70;0.60;;;8.80;99.90;;;;;;5088843;28;20402;-80
2023/01/05 08:28:39;;;;;;;5.35;0.60;;;8.70;99.90;;;;;;5089313;28;20823;-80
2023/01/05 08:31:09;;;;;;;4.43;0.50;;;8.80;99.90;;;;;;5071706;28;20467;-79
2023/01/05 08:33:35;;;;;;;6.30;1.05;;;8.80;99.90;;;;;;5089787;28;20410;-79
2023/01/05 08:36:00;;;;;;;5.75;0.75;;;8.80;99.90;;;;;;5089114;28;20402;-80
2023/01/05 08:38:26;;;;;;;6.80;0.80;;;8.70;99.90;;;;;;5088680;28;20413;-79
2023/01/05 08:40:52;;;;;;;8.80;1.10;;;8.70;99.90;;;;;;5088525;28;20440;-79
2023/01/05 08:43:18;;;;;;;6.88;1.35;;;8.70;99.90;;;;;;5088254;28;20406;-79
2023/01/05 08:45:48;;;;;;;9.27;1.27;;;8.70;99.90;;;;;;5090262;28;20477;-79
2023/01/05 08:48:15;;;;;;;9.83;1.50;;;8.70;99.90;;;;;;5087909;28;20410;-79
2023/01/05 08:50:40;;;;;;;10.27;1.47;;;8.60;99.90;;;;;;5089578;28;20426;-79
2023/01/05 08:53:06;;;;;;;11.30;1.40;;;8.60;99.90;;;;;;5087655;28;20429;-79
2023/01/05 08:55:31;;;;;;;10.23;1.08;;;8.60;99.90;;;;;;5088892;28;20413;-80
2023/01/05 08:57:57;;;;;;;10.87;1.50;;;8.60;99.90;;;;;;5088692;28;20421;-79
2023/01/05 09:00:23;;;;;;;8.93;1.23;;;8.50;99.90;;;;;;5088036;28;20433;-79
2023/01/05 09:02:49;;;;;;;11.95;1.73;;;8.50;99.90;;;;;;5088230;28;20401;-79
2023/01/05 09:05:15;;;;;;;12.27;1.43;;;8.60;99.90;;;;;;5089623;28;20531;-80
2023/01/05 09:07:40;;;;;;;8.57;1.35;;;8.60;99.90;;;;;;5091985;28;20926;-79
2023/01/05 09:10:07;;;;;;;12.23;1.50;;;8.60;99.90;;;;;;5089229;28;20402;-79
2023/01/05 09:12:37;;;;;;;9.10;1.30;;;8.60;99.90;;;;;;5091731;28;20406;-80
2023/01/05 09:15:04;;;;;;;12.93;2.08;;;8.60;99.90;;;;;;5089569;28;20410;-79
2023/01/05 09:17:30;;;;;;;11.60;1.77;;;8.70;99.90;;;;;;5087207;28;20412;-79
2023/01/05 09:19:56;;;;;;;17.85;2.20;;;8.80;99.90;;;;;;5090202;28;20426;-80
2023/01/05 09:22:21;;;;;;;20.75;2.10;;;8.80;99.90;;;;;;5091569;28;20455;-79
2023/01/05 09:24:47;;;;;;;13.60;1.80;;;8.80;99.90;;;;;;5089941;28;20800;-79
2023/01/05 09:27:13;;;;;;;20.13;2.42;;;8.90;99.90;;;;;;5091962;28;20410;-79
2023/01/05 09:29:38;;;;;;;18.52;2.10;;;8.90;99.90;;;;;;5089857;28;20474;-79
2023/01/05 09:32:05;;;;;;;20.43;2.43;;;9.00;99.90;;;;;;5089284;28;20405;-79
2023/01/05 09:34:31;;;;;;;18.20;2.28;;;9.00;99.90;;;;;;5089389;28;20412;-79
2023/01/05 09:36:57;;;;;;;17.43;2.80;;;9.10;99.90;;;;;;5091483;28;20959;-80
2023/01/05 09:39:23;;;;;;;13.80;2.27;;;9.10;99.90;;;;;;5089208;28;20497;-79
2023/01/05 09:41:54;;;;;;;18.35;2.20;;;9.20;99.90;;;;;;5090966;28;20465;-80
2023/01/05 09:44:58;;;;;;;14.73;2.20;;;9.20;99.90;;;;;;5090672;28;20907;-80
2023/01/05 09:47:45;;;;;;;15.25;1.90;;;9.30;99.90;;;;;;5082798;28;20414;-80
2023/01/05 09:50:20;;;;;;;15.07;1.70;;;9.40;99.90;;;;;;5072238;28;20980;-80
2023/01/05 09:52:48;;;;;;;15.90;1.80;;;9.40;99.90;;;;;;5073746;28;20406;-80
2023/01/05 09:55:16;;;;;;;11.30;1.58;;;9.50;99.90;;;;;;5090354;28;20543;-79
2023/01/05 09:57:49;;;;;;;16.35;2.33;;;9.60;99.90;;;;;;5094781;28;20419;-79
2023/01/05 10:00:16;;;;;;;14.52;1.77;;;9.50;99.90;;;;;;5090876;28;20501;-80
2023/01/05 10:02:48;;;;;;;10.00;1.45;;;9.60;99.90;;;;;;5086350;28;20975;-80
2023/01/05 10:05:15;;;;;;;14.77;1.70;;;9.60;99.90;;;;;;5088593;28;20772;-79
2023/01/05 10:07:52;;;;;;;9.70;1.42;;;9.60;99.90;;;;;;5086894;28;20402;-80
2023/01/05 10:13:42;;;;;;;9.73;1.10;;;9.70;99.90;;;;;;5081052;28;20483;-79
2023/01/05 10:16:14;;;;;;;11.68;1.13;;;9.70;99.90;;;;;;5087550;28;20904;-80
2023/01/05 10:18:40;;;;;;;12.45;1.38;;;9.50;99.90;;;;;;5091476;28;20408;-79
2023/01/05 10:21:29;;;;;;;8.77;1.10;;;9.50;99.90;;;;;;5089304;28;20508;-79
2023/01/05 10:24:13;;;;;;;12.00;1.42;;;9.40;99.90;;;;;;5075372;28;20905;-79
2023/01/05 10:27:13;;;;;;;12.77;1.25;;;9.40;99.90;;;;;;5074321;28;20418;-80
2023/01/05 10:29:43;;;;;;;12.25;1.35;;;9.30;99.90;;;;;;5027492;28;20447;-79
2023/01/05 10:32:15;;;;;;;8.55;1.13;;;9.30;99.90;;;;;;5070125;28;20414;-79
2023/01/05 10:34:54;;;;;;;10.77;1.10;;;9.40;99.90;;;;;;5070461;28;20475;-79
2023/01/05 10:37:40;;;;;;;10.88;1.23;;;9.40;99.90;;;;;;5086583;28;20547;-80
2023/01/05 10:40:20;;;;;;;10.77;0.98;;;9.40;99.90;;;;;;5086736;28;20936;-79
2023/01/05 10:42:58;;;;;;;8.88;1.20;;;9.40;99.90;;;;;;5087127;28;20410;-79
2023/01/05 10:45:27;;;;;;;8.73;1.05;;;9.40;99.90;;;;;;5086530;28;20414;-80
2023/01/05 10:47:53;;;;;;;8.20;0.80;;;9.40;99.90;;;;;;5087804;28;21958;-79
2023/01/05 10:50:37;;;;;;;6.97;0.83;;;9.40;99.90;;;;;;5088780;28;20405;-79
2023/01/05 10:53:13;;;;;;;6.40;0.77;;;9.40;99.90;;;;;;5087111;28;20480;-80
2023/01/05 10:56:03;;;;;;;8.35;1.20;;;9.50;99.90;;;;;;5087544;28;20442;-79
2023/01/05 10:58:34;;;;;;;9.23;1.10;;;9.70;99.90;;;;;;5086987;28;20417;-79
2023/01/05 11:01:29;;;;;;;10.18;1.20;;;9.90;99.90;;;;;;5087757;28;20433;-79
2023/01/05 11:04:08;;;;;;;8.63;1.45;;;10.10;99.90;;;;;;5087584;28;20484;-80
2023/01/05 11:06:35;;;;;;;10.70;1.35;;;10.50;99.90;;;;;;5086500;28;20451;-80
2023/01/05 11:09:17;;;;;;;8.07;0.82;;;10.80;99.90;;;;;;5087797;28;20423;-80
2023/01/05 11:11:51;;;;;;;7.32;0.85;;;11.00;99.90;;;;;;5069348;28;20420;-80
2023/01/05 11:14:17;;;;;;;8.95;1.02;;;11.10;99.90;;;;;;5086762;28;20436;-80
2023/01/05 11:16:52;;;;;;;5.38;0.75;;;11.30;99.90;;;;;;5069273;28;20912;-80
2023/01/05 11:19:29;;;;;;;10.00;1.30;;;11.30;99.90;;;;;;5087080;28;20489;-79
2023/01/05 11:21:54;;;;;;;10.73;1.40;;;11.20;99.90;;;;;;5091832;28;20405;-79
2023/01/05 11:24:23;;;;;;;9.60;0.90;;;11.10;99.90;;;;;;5090897;28;20398;-80
2023/01/05 11:26:50;;;;;;;7.18;0.75;;;11.10;99.90;;;;;;5092253;28;20412;-80
2023/01/05 11:29:17;;;;;;;10.25;1.23;;;11.20;99.90;;;;;;5089317;28;20406;-79
2023/01/05 11:31:48;;;;;;;7.90;0.90;;;11.30;99.90;;;;;;5091653;28;21051;-80
2023/01/05 11:34:32;;;;;;;8.30;1.13;;;11.30;99.90;;;;;;5093264;28;20494;-79
2023/01/05 11:37:08;;;;;;;7.07;0.98;;;11.30;99.90;;;;;;5095261;28;20422;-80
2023/01/05 11:39:58;;;;;;;12.10;1.05;;;11.20;99.90;;;;;;5102453;28;20429;-80
2023/01/05 11:42:24;;;;;;;7.90;1.35;;;11.10;99.90;;;;;;5098265;28;20421;-79
2023/01/05 11:44:58;;;;;;;8.27;1.20;;;11.10;99.90;;;;;;5094921;28;20412;-79
2023/01/05 11:47:37;;;;;;;13.43;1.25;;;11.00;99.90;;;;;;5075623;28;20406;-79
2023/01/05 11:50:27;;;;;;;11.68;1.17;;;10.90;99.90;;;;;;5089701;28;20406;-78
2023/01/05 11:52:55;;;;;;;13.95;1.20;;;10.80;99.90;;;;;;5095059;28;20530;-79
2023/01/05 11:55:29;;;;;;;8.55;1.38;;;10.80;99.90;;;;;;5093639;28;20956;-79
2023/01/05 11:58:12;;;;;;;11.20;1.30;;;10.70;99.90;;;;;;5099079;28;20875;-79
2023/01/05 12:01:11;;;;;;;7.93;1.10;;;10.60;99.90;;;;;;5094845;28;20769;-80
2023/01/05 12:04:00;;;;;;;12.80;1.92;;;10.60;99.90;;;;;;5095815;28;20402;-79
2023/01/05 12:06:51;;;;;;;11.02;1.13;;;10.50;99.90;;;;;;5088233;28;20911;-79
2023/01/05 12:09:38;;;;;;;11.13;1.45;;;10.40;99.90;;;;;;5071819;28;20418;-79
2023/01/05 12:12:31;;;;;;;9.40;1.10;;;10.30;99.90;;;;;;5089386;28;20459;-79
2023/01/05 12:15:24;;;;;;;12.70;1.43;;;10.20;99.90;;;;;;5090500;28;20402;-79
2023/01/05 12:17:57;;;;;;;13.23;1.92;;;10.20;99.90;;;;;;5092018;28;20417;-79
2023/01/05 12:20:34;;;;;;;12.20;1.80;;;10.20;99.90;;;;;;5090883;28;20432;-79
2023/01/05 12:23:44;;;;;;;10.77;1.67;;;10.30;99.90;;;;;;5089015;28;20419;-79
2023/01/05 12:26:28;;;;;;;15.90;1.93;;;10.30;99.90;;;;;;5001892;28;20419;-79
2023/01/05 12:29:08;;;;;;;12.57;1.50;;;10.30;99.90;;;;;;5007304;28;20415;-80
2023/01/05 12:31:38;;;;;;;11.60;1.27;;;10.30;99.90;;;;;;5069297;28;20414;-79
2023/01/05 12:34:18;;;;;;;10.60;1.27;;;10.20;99.90;;;;;;5092845;28;20481;-79
2023/01/05 12:37:23;;;;;;;10.23;1.40;;;10.20;99.90;;;;;;5095152;28;20408;-80
2023/01/05 12:40:10;;;;;;;10.93;1.80;;;10.10;99.90;;;;;;5010363;28;20925;-80
2023/01/05 12:42:54;;;;;;;12.87;1.50;;;10.00;99.90;;;;;;5082902;28;20418;-79
2023/01/05 12:45:28;;;;;;;14.20;2.20;;;9.90;99.90;;;;;;5086523;28;20437;-79
2023/01/05 12:47:56;;;;;;;11.73;2.10;;;9.90;99.90;;;;;;5087519;28;20413;-79
2023/01/05 12:50:29;;;;;;;10.73;1.60;;;9.90;99.90;;;;;;5104834;28;20417;-79
2023/01/05 12:53:07;;;;;;;8.00;1.20;;;9.90;99.90;;;;;;5074434;28;20529;-79
2023/01/05 12:55:39;;;;;;;12.70;1.65;;;9.90;99.90;;;;;;5091475;28;20414;-79
2023/01/05 12:58:21;;;;;;;14.65;1.83;;;9.90;99.90;;;;;;5095377;28;20475;-79
2023/01/05 13:00:48;;;;;;;9.98;1.42;;;9.90;99.90;;;;;;5076587;28;20434;-79
2023/01/05 13:03:29;;;;;;;9.33;1.00;;;9.90;99.90;;;;;;5088856;28;20406;-79
2023/01/05 13:06:20;;;;;;;12.25;1.60;;;10.00;99.90;;;;;;5090393;28;20405;-79
2023/01/05 13:08:57;;;;;;;9.80;1.20;;;10.00;99.90;;;;;;5087588;28;20971;-80
2023/01/05 13:11:34;;;;;;;9.97;1.03;;;10.10;99.90;;;;;;5088779;28;20414;-80
2023/01/05 13:14:06;;;;;;;12.50;1.38;;;10.10;99.90;;;;;;5087878;28;20494;-79
2023/01/05 13:16:42;;;;;;;9.63;1.20;;;10.10;99.90;;;;;;5087880;28;20410;-79
2023/01/05 13:19:41;;;;;;;9.57;1.60;;;10.10;99.90;;;;;;5090831;28;20438;-79
2023/01/05 13:22:25;;;;;;;12.70;1.33;;;10.20;99.90;;;;;;5089584;28;20955;-79
2023/01/05 13:25:20;;;;;;;12.40;1.60;;;10.10;99.90;;;;;;5091151;28;20416;-79
2023/01/05 13:27:45;;;;;;;9.60;1.65;;;10.10;99.90;;;;;;5078816;28;20775;-79
2023/01/05 13:30:24;;;;;;;14.07;1.93;;;10.10;99.90;;;;;;5086837;28;20398;-80
2023/01/05 13:33:22;;;;;;;9.65;1.85;;;10.10;99.90;;;;;;5090230;28;20795;-80
2023/01/05 13:36:21;;;;;;;10.48;1.58;;;10.10;99.90;;;;;;5079546;28;20907;-79
2023/01/05 13:39:20;;;;;;;9.43;1.57;;;10.10;99.90;;;;;;5088532;28;20417;-79
2023/01/05 13:42:06;;;;;;;14.38;1.35;;;10.10;99.90;;;;;;5085708;28;21564;-79
2023/01/05 13:44:41;;;;;;;10.33;1.87;;;10.10;99.90;;;;;;5086669;28;20425;-79